Terminal Aerodrome Forecast
Issued by NWS

Home | Current Version | Previous Version | Text Only | Print | Product List | Glossary On
Versions: 1 2 3 4 5 6 7 8 9 10 11 12 13 14 15 16 17 18 19 20 21 22 23 24 25 26 27 28 29 30 31 32 33 34 35 36 37 38 39 40
000
FTPQ31 PGUM 251300 AAA
TAFPQ
TAF AMD
PTRO 251301Z 2513/2612 25011KT P6SM -SHRA BKN015 BKN050 OVC110
      TEMPO 2513/2517 26012G22KT 3SM TSRA BKN015CB BKN030 OVC050
     FM251700 24012G20KT P6SM VCSH BKN015 BKN050 OVC110
      TEMPO 2517/2521 24012G24KT 3SM TSRA BKN015CB BKN040 OVC110=

USA.gov is the U.S. government's official web portal to all federal, state and local government web resources and services.